createdAt,value
2023-03-25T00:00:16.831Z,24.75
2023-03-25T00:02:49.345Z,18.57
2023-03-25T00:05:19.210Z,15.98
2023-03-25T00:07:48.593Z,16.13
2023-03-25T00:10:15.551Z,17.80
2023-03-25T00:12:45.469Z,17.65
2023-03-25T00:15:13.790Z,18.10
2023-03-25T00:17:40.573Z,19.23
2023-03-25T00:20:10.194Z,16.00
2023-03-25T00:22:41.130Z,15.93
2023-03-25T00:25:19.264Z,11.87
2023-03-25T00:27:48.015Z,16.45
2023-03-25T00:30:16.144Z,13.48
2023-03-25T00:32:46.023Z,14.23
2023-03-25T00:35:14.102Z,13.20
2023-03-25T00:37:41.417Z,16.73
2023-03-25T00:40:09.329Z,17.48
2023-03-25T00:42:36.088Z,15.00
2023-03-25T00:45:03.614Z,13.48
2023-03-25T00:47:31.585Z,16.40
2023-03-25T00:49:58.293Z,16.40
2023-03-25T00:52:25.005Z,18.48
2023-03-25T00:54:52.833Z,16.27
2023-03-25T00:57:19.643Z,14.40
2023-03-25T00:59:46.325Z,14.52
2023-03-25T01:02:13.139Z,18.63
2023-03-25T01:04:42.227Z,16.48
2023-03-25T01:07:12.748Z,16.85
2023-03-25T01:09:39.599Z,13.80
2023-03-25T01:12:06.456Z,15.63
2023-03-25T01:14:33.158Z,16.33
2023-03-25T01:17:00.557Z,14.57
2023-03-25T01:19:27.387Z,13.43
2023-03-25T01:21:54.482Z,14.07
2023-03-25T01:24:21.181Z,13.63
2023-03-25T01:26:48.224Z,13.65
2023-03-25T01:29:17.826Z,15.25
2023-03-25T01:31:44.793Z,12.88
2023-03-25T01:34:12.448Z,15.43
2023-03-25T01:36:46.883Z,13.88
2023-03-25T01:39:18.734Z,14.27
2023-03-25T01:41:50.203Z,14.43
2023-03-25T01:46:53.879Z,14.88
2023-03-25T01:49:24.641Z,12.25
2023-03-25T01:51:56.807Z,12.63
2023-03-25T01:54:24.267Z,13.40
2023-03-25T01:56:52.422Z,11.75
2023-03-25T01:59:25.172Z,13.57
2023-03-25T02:01:53.786Z,10.10
2023-03-25T02:04:34.921Z,15.45
2023-03-25T02:07:02.329Z,17.10
2023-03-25T02:09:29.379Z,13.57
2023-03-25T02:11:55.984Z,12.63
2023-03-25T02:14:30.593Z,16.08
2023-03-25T02:17:03.268Z,12.25
2023-03-25T02:19:33.335Z,14.95
2023-03-25T02:22:37.712Z,11.05
2023-03-25T02:25:46.133Z,14.38
2023-03-25T02:28:38.178Z,16.33
2023-03-25T02:31:10.695Z,20.60
2023-03-25T02:34:05.348Z,22.20
2023-03-25T02:37:00.258Z,18.42
2023-03-25T02:39:54.721Z,16.30
2023-03-25T02:42:27.718Z,18.67
2023-03-25T02:44:59.297Z,17.48
2023-03-25T02:47:31.722Z,19.92
2023-03-25T02:50:04.872Z,18.27
2023-03-25T02:52:46.638Z,20.73
2023-03-25T02:55:17.879Z,24.33
2023-03-25T02:57:47.808Z,21.75
2023-03-25T03:00:20.676Z,28.17
2023-03-25T03:02:59.971Z,25.27
2023-03-25T03:05:34.139Z,21.23
2023-03-25T03:08:00.706Z,20.25
2023-03-25T03:10:37.263Z,19.05
2023-03-25T03:13:33.292Z,25.17
2023-03-25T03:16:39.452Z,25.83
2023-03-25T03:19:14.442Z,22.33
2023-03-25T03:22:01.454Z,24.88
2023-03-25T03:24:40.102Z,32.55
2023-03-25T03:27:15.081Z,18.80
2023-03-25T03:29:48.297Z,30.92
2023-03-25T03:32:29.866Z,26.08
2023-03-25T03:35:04.266Z,18.30
2023-03-25T03:37:38.147Z,19.60
2023-03-25T03:40:09.802Z,21.75
2023-03-25T03:42:49.337Z,23.55
2023-03-25T03:45:33.463Z,23.60
2023-03-25T03:48:04.632Z,21.10
2023-03-25T03:50:36.701Z,23.98
2023-03-25T03:53:23.752Z,23.23
2023-03-25T03:55:55.648Z,24.95
2023-03-25T03:58:28.583Z,22.98
2023-03-25T04:01:28.146Z,22.10
2023-03-25T04:04:22.711Z,21.95
2023-03-25T04:07:05.178Z,23.60
2023-03-25T04:12:11.502Z,23.98
2023-03-25T04:14:39.243Z,26.52
2023-03-25T04:17:06.710Z,23.08
2023-03-25T04:19:34.159Z,19.92
2023-03-25T04:22:04.864Z,27.52
2023-03-25T04:24:32.430Z,21.70
2023-03-25T04:27:03.556Z,24.02
2023-03-25T04:29:32.126Z,18.52
2023-03-25T04:32:00.171Z,25.70
2023-03-25T04:34:27.775Z,20.35
2023-03-25T04:36:57.264Z,18.15
2023-03-25T04:39:25.683Z,19.83
2023-03-25T04:42:03.566Z,21.33
2023-03-25T04:44:33.822Z,21.50
2023-03-25T04:47:02.326Z,27.25
2023-03-25T04:49:29.375Z,17.55
2023-03-25T04:51:57.077Z,17.25
2023-03-25T04:54:24.207Z,21.75
2023-03-25T04:56:52.304Z,16.08
2023-03-25T04:59:19.974Z,20.52
2023-03-25T05:01:47.467Z,17.08
2023-03-25T05:04:18.414Z,20.50
2023-03-25T05:06:48.569Z,23.02
2023-03-25T05:09:19.127Z,25.65
2023-03-25T05:11:46.358Z,20.15
2023-03-25T05:14:15.475Z,27.73
2023-03-25T05:16:42.792Z,25.38
2023-03-25T05:19:10.059Z,24.83
2023-03-25T05:21:38.130Z,30.20
2023-03-25T05:24:11.034Z,28.65
2023-03-25T05:26:40.027Z,21.55
2023-03-25T05:29:13.972Z,18.50
2023-03-25T05:31:41.640Z,21.20
2023-03-25T05:34:08.588Z,23.00
2023-03-25T05:36:35.932Z,21.33
2023-03-25T05:39:05.668Z,24.17
2023-03-25T05:41:33.149Z,24.23
2023-03-25T05:44:03.230Z,26.90
2023-03-25T05:46:29.955Z,27.80
2023-03-25T05:48:57.720Z,19.95
2023-03-25T05:51:27.094Z,25.88
2023-03-25T05:53:54.352Z,22.27
2023-03-25T05:56:24.397Z,22.10
2023-03-25T05:58:52.285Z,19.98
2023-03-25T06:01:32.665Z,22.17
2023-03-25T06:04:02.066Z,23.33
2023-03-25T06:06:30.784Z,24.80
2023-03-25T06:08:58.209Z,35.67
2023-03-25T06:11:26.010Z,24.85
2023-03-25T06:13:53.101Z,18.65
2023-03-25T06:16:29.967Z,17.60
2023-03-25T06:19:00.256Z,26.40
2023-03-25T06:21:33.087Z,21.85
2023-03-25T06:24:02.401Z,21.55
2023-03-25T06:26:29.880Z,20.33
2023-03-25T06:28:58.156Z,21.40
2023-03-25T06:31:26.917Z,25.00
2023-03-25T06:33:55.226Z,23.75
2023-03-25T06:36:21.855Z,21.80
2023-03-25T06:38:50.438Z,26.48
2023-03-25T06:41:22.058Z,23.17
2023-03-25T06:43:49.257Z,22.88
2023-03-25T06:46:16.964Z,23.10
2023-03-25T06:48:44.032Z,20.48
2023-03-25T06:51:11.598Z,18.10
2023-03-25T06:53:38.537Z,33.88
2023-03-25T06:56:05.699Z,20.98
2023-03-25T06:58:35.350Z,14.07
2023-03-25T07:01:07.274Z,21.63
2023-03-25T07:06:02.079Z,20.77
2023-03-25T07:08:28.972Z,29.13
2023-03-25T07:11:02.337Z,16.13
2023-03-25T07:13:31.315Z,16.10
2023-03-25T07:15:59.204Z,25.70
2023-03-25T07:18:26.726Z,19.27
2023-03-25T07:20:53.853Z,17.10
2023-03-25T07:23:20.888Z,19.48
2023-03-25T07:25:47.945Z,21.67
2023-03-25T07:28:14.776Z,17.48
2023-03-25T07:30:41.614Z,17.40
2023-03-25T07:33:08.656Z,16.08
2023-03-25T07:35:35.514Z,18.50
2023-03-25T07:38:03.004Z,20.83
2023-03-25T07:40:29.722Z,34.58
2023-03-25T07:42:56.357Z,16.88
2023-03-25T07:45:23.469Z,19.30
2023-03-25T07:47:51.055Z,13.57
2023-03-25T07:50:19.723Z,24.45
2023-03-25T07:52:46.770Z,17.77
2023-03-25T07:55:14.593Z,15.73
2023-03-25T07:57:44.338Z,20.67
2023-03-25T08:00:12.005Z,19.63
2023-03-25T08:02:39.539Z,18.77
2023-03-25T08:05:10.304Z,16.13
2023-03-25T08:07:36.872Z,18.40
2023-03-25T08:10:04.212Z,13.50
2023-03-25T08:12:31.062Z,17.65
2023-03-25T08:14:58.078Z,16.05
2023-03-25T08:17:24.869Z,22.23
2023-03-25T08:19:51.671Z,18.20
2023-03-25T08:22:18.550Z,16.70
2023-03-25T08:24:45.501Z,15.20
2023-03-25T08:27:14.852Z,24.42
2023-03-25T08:29:44.535Z,15.75
2023-03-25T08:32:11.329Z,19.35
2023-03-25T08:34:40.083Z,16.38
2023-03-25T08:37:08.114Z,18.13
2023-03-25T08:39:39.747Z,19.10
2023-03-25T08:42:07.597Z,18.63
2023-03-25T08:44:34.722Z,20.63
2023-03-25T08:47:01.898Z,15.70
2023-03-25T08:49:28.540Z,17.13
2023-03-25T08:51:57.643Z,19.83
2023-03-25T08:54:26.262Z,19.17
2023-03-25T08:56:53.050Z,19.08
2023-03-25T08:59:20.581Z,16.90
2023-03-25T09:01:47.723Z,13.50
2023-03-25T09:04:14.421Z,11.93
2023-03-25T09:06:47.612Z,12.20
2023-03-25T09:09:16.529Z,12.68
2023-03-25T09:11:43.210Z,18.65
2023-03-25T09:14:10.378Z,12.48
2023-03-25T09:16:36.977Z,14.88
2023-03-25T09:19:04.109Z,12.98
2023-03-25T09:21:31.204Z,16.77
2023-03-25T09:23:57.835Z,13.98
2023-03-25T09:26:26.192Z,14.43
2023-03-25T09:28:55.624Z,17.25
2023-03-25T09:31:23.550Z,14.55
2023-03-25T09:33:50.570Z,9.40
2023-03-25T09:36:17.420Z,10.98
2023-03-25T09:38:44.373Z,6.97
2023-03-25T09:41:34.119Z,9.05
2023-03-25T09:44:15.114Z,14.60
2023-03-25T09:46:42.335Z,7.05
2023-03-25T09:49:18.443Z,6.82
2023-03-25T09:51:48.905Z,4.78
2023-03-25T09:54:34.119Z,5.60
2023-03-25T09:57:07.500Z,9.18
2023-03-25T09:59:44.564Z,7.30
2023-03-25T10:02:41.718Z,5.18
2023-03-25T10:05:14.912Z,4.35
2023-03-25T10:08:04.569Z,7.03
2023-03-25T10:10:46.620Z,6.80
2023-03-25T10:16:00.245Z,8.18
2023-03-25T10:18:37.873Z,4.07
2023-03-25T10:21:23.907Z,6.43
2023-03-25T10:24:11.940Z,6.82
2023-03-25T10:26:51.029Z,4.20
2023-03-25T10:29:28.098Z,6.90
2023-03-25T10:32:00.373Z,5.55
2023-03-25T10:34:40.479Z,3.47
2023-03-25T10:37:12.664Z,3.28
2023-03-25T10:39:44.645Z,5.85
2023-03-25T10:44:57.784Z,5.68
2023-03-25T10:47:29.187Z,3.97
2023-03-25T10:49:57.252Z,4.00
2023-03-25T10:52:25.301Z,2.70
2023-03-25T10:54:56.213Z,4.97
2023-03-25T10:57:27.835Z,6.95
2023-03-25T11:00:12.754Z,3.65
2023-03-25T11:02:39.629Z,4.55
2023-03-25T11:05:08.263Z,2.40
2023-03-25T11:08:08.731Z,2.08
2023-03-25T11:10:47.792Z,4.07
2023-03-25T11:13:16.856Z,2.88
2023-03-25T11:15:44.607Z,2.03
2023-03-25T11:18:44.458Z,3.45
2023-03-25T11:21:15.760Z,3.35
2023-03-25T11:23:45.981Z,3.30
2023-03-25T11:26:25.294Z,3.28
2023-03-25T11:28:56.171Z,7.25
2023-03-25T11:31:28.157Z,3.10
2023-03-25T11:34:07.566Z,3.72
2023-03-25T11:36:40.360Z,2.63
2023-03-25T11:39:30.297Z,4.15
2023-03-25T11:41:57.821Z,4.97
2023-03-25T11:44:33.107Z,3.60
2023-03-25T11:47:06.370Z,2.72
2023-03-25T11:49:38.507Z,9.52
2023-03-25T11:52:09.639Z,7.20
2023-03-25T11:54:37.461Z,7.05
2023-03-25T11:57:07.443Z,2.95
2023-03-25T11:59:45.669Z,3.10
2023-03-25T12:02:37.597Z,2.83
2023-03-25T12:05:16.742Z,3.85
2023-03-25T12:07:52.601Z,3.28
2023-03-25T12:10:32.066Z,3.35
2023-03-25T12:13:17.307Z,3.78
2023-03-25T12:15:56.192Z,3.72
2023-03-25T12:18:53.917Z,5.78
2023-03-25T12:21:50.729Z,4.50
2023-03-25T12:24:38.745Z,2.97
2023-03-25T12:27:31.150Z,3.33
2023-03-25T12:30:25.718Z,10.18
2023-03-25T12:33:13.765Z,1.42
2023-03-25T12:36:01.896Z,3.25
2023-03-25T12:38:47.294Z,3.35
2023-03-25T12:41:51.988Z,3.85
2023-03-25T12:44:27.655Z,3.38
2023-03-25T12:46:57.412Z,3.60
2023-03-25T12:49:37.086Z,5.60
2023-03-25T12:52:32.300Z,2.25
2023-03-25T12:55:36.747Z,4.50
2023-03-25T12:58:21.489Z,3.08
2023-03-25T13:01:07.232Z,3.28
2023-03-25T13:04:04.729Z,3.75
2023-03-25T13:06:49.612Z,2.78
2023-03-25T13:09:25.569Z,11.40
2023-03-25T13:11:58.964Z,11.90
2023-03-25T13:14:32.128Z,3.13
2023-03-25T13:17:02.860Z,3.25
2023-03-25T13:19:34.733Z,5.22
2023-03-25T13:24:51.661Z,2.05
2023-03-25T13:27:19.900Z,6.13
2023-03-25T13:29:59.256Z,1.83
2023-03-25T13:32:37.115Z,4.20
2023-03-25T13:35:12.114Z,3.15
2023-03-25T13:37:43.317Z,4.65
2023-03-25T13:40:10.888Z,3.72
2023-03-25T13:43:02.271Z,5.40
2023-03-25T13:45:35.643Z,5.90
2023-03-25T13:48:17.872Z,5.03
2023-03-25T13:50:44.956Z,5.55
2023-03-25T13:53:41.333Z,4.45
2023-03-25T13:56:11.633Z,3.50
2023-03-25T13:59:05.779Z,2.65
2023-03-25T14:02:08.423Z,4.00
2023-03-25T14:04:46.959Z,3.45
2023-03-25T14:07:48.317Z,2.78
2023-03-25T14:10:52.881Z,1.98
2023-03-25T14:13:42.996Z,3.00
2023-03-25T14:16:16.516Z,2.33
2023-03-25T14:18:53.362Z,4.38
2023-03-25T14:21:38.475Z,2.78
2023-03-25T14:24:10.617Z,3.20
2023-03-25T14:26:48.590Z,3.53
2023-03-25T14:29:40.430Z,3.25
2023-03-25T14:32:22.001Z,3.45
2023-03-25T14:34:50.049Z,3.20
2023-03-25T14:37:29.119Z,3.17
2023-03-25T14:40:02.174Z,2.97
2023-03-25T14:43:01.691Z,4.18
2023-03-25T14:45:32.423Z,5.43
2023-03-25T14:48:00.800Z,4.07
2023-03-25T14:50:28.225Z,6.25
2023-03-25T14:53:05.909Z,3.75
2023-03-25T14:55:36.655Z,4.63
2023-03-25T14:58:16.846Z,5.95
2023-03-25T15:00:53.959Z,6.30
2023-03-25T15:03:22.781Z,5.15
2023-03-25T15:06:00.796Z,5.47
2023-03-25T15:08:42.989Z,3.30
2023-03-25T15:11:17.315Z,3.95
2023-03-25T15:13:54.537Z,6.20
2023-03-25T15:16:38.063Z,4.43
2023-03-25T15:19:12.958Z,6.38
2023-03-25T15:21:58.443Z,4.00
2023-03-25T15:24:36.662Z,4.57
2023-03-25T15:27:26.043Z,9.23
2023-03-25T15:30:01.350Z,7.43
2023-03-25T15:32:43.227Z,6.15
2023-03-25T15:35:32.671Z,13.18
2023-03-25T15:38:21.783Z,8.43
2023-03-25T15:41:14.737Z,8.23
2023-03-25T15:44:00.596Z,9.98
2023-03-25T15:46:53.045Z,9.18
2023-03-25T15:50:08.076Z,17.77
2023-03-25T15:53:05.941Z,10.52
2023-03-25T15:56:06.729Z,10.48
2023-03-25T15:58:55.516Z,9.48
2023-03-25T16:01:33.021Z,10.82
2023-03-25T16:04:05.875Z,9.48
2023-03-25T16:06:40.260Z,14.88
2023-03-25T16:09:11.620Z,17.55
2023-03-25T16:11:43.722Z,13.65
2023-03-25T16:16:50.640Z,18.73
2023-03-25T16:19:22.758Z,17.35
2023-03-25T16:24:20.704Z,16.80
2023-03-25T16:26:49.176Z,14.23
2023-03-25T16:29:17.952Z,15.98
2023-03-25T16:32:02.334Z,15.95
2023-03-25T16:34:38.104Z,12.20
2023-03-25T16:37:06.936Z,12.77
2023-03-25T16:39:36.779Z,17.02
2023-03-25T16:42:34.684Z,15.80
2023-03-25T16:45:03.007Z,28.60
2023-03-25T16:47:33.522Z,23.95
2023-03-25T16:50:02.959Z,24.95
2023-03-25T16:52:33.067Z,29.02
2023-03-25T16:54:59.646Z,24.73
2023-03-25T16:57:34.061Z,24.42
2023-03-25T17:00:20.501Z,25.98
2023-03-25T17:02:49.810Z,27.45
2023-03-25T17:05:22.445Z,29.70
2023-03-25T17:08:04.179Z,23.83
2023-03-25T17:10:47.758Z,22.45
2023-03-25T17:13:22.852Z,20.85
2023-03-25T17:15:51.586Z,14.25
2023-03-25T17:18:20.900Z,16.52
2023-03-25T17:20:49.373Z,22.80
2023-03-25T17:23:35.048Z,20.35
2023-03-25T17:26:12.691Z,16.48
2023-03-25T17:28:43.220Z,17.95
2023-03-25T17:31:38.159Z,21.27
2023-03-25T17:34:07.434Z,15.13
2023-03-25T17:36:40.562Z,20.73
2023-03-25T17:39:19.438Z,21.70
2023-03-25T17:41:46.848Z,30.48
2023-03-25T17:44:16.950Z,33.80
2023-03-25T17:46:44.224Z,35.17
2023-03-25T17:49:16.884Z,40.13
2023-03-25T17:51:44.055Z,41.92
2023-03-25T17:54:10.940Z,39.38
2023-03-25T17:56:39.603Z,39.72
2023-03-25T17:59:14.382Z,45.70
2023-03-25T18:01:41.166Z,30.48
2023-03-25T18:04:09.468Z,27.50
2023-03-25T18:06:36.417Z,33.97
2023-03-25T18:09:03.660Z,36.55
2023-03-25T18:11:31.102Z,40.17
2023-03-25T18:13:57.848Z,37.47
2023-03-25T18:16:24.752Z,35.72
2023-03-25T18:18:51.931Z,35.03
2023-03-25T18:21:20.159Z,37.75
2023-03-25T18:23:48.645Z,27.50
2023-03-25T18:26:18.651Z,33.25
2023-03-25T18:28:49.124Z,33.03
2023-03-25T18:31:17.854Z,34.00
2023-03-25T18:33:50.229Z,60.50
2023-03-25T18:36:18.862Z,46.30
2023-03-25T18:38:46.260Z,51.67
2023-03-25T18:41:17.681Z,53.65
2023-03-25T18:43:44.668Z,59.73
2023-03-25T18:46:14.151Z,54.78
2023-03-25T18:48:41.335Z,52.08
2023-03-25T18:51:10.713Z,42.42
2023-03-25T18:53:37.983Z,44.95
2023-03-25T18:56:05.214Z,40.58
2023-03-25T18:58:34.035Z,38.38
2023-03-25T19:01:02.887Z,36.88
2023-03-25T19:03:38.595Z,30.60
2023-03-25T19:06:11.596Z,23.38
2023-03-25T19:08:39.235Z,26.92
2023-03-25T19:11:19.206Z,26.83
2023-03-25T19:13:48.811Z,34.95
2023-03-25T19:16:15.637Z,40.25
2023-03-25T19:18:42.583Z,36.85
2023-03-25T19:21:14.150Z,43.70
2023-03-25T19:23:42.420Z,49.95
2023-03-25T19:26:09.191Z,53.90
2023-03-25T19:28:35.970Z,49.65
2023-03-25T19:31:03.168Z,42.78
2023-03-25T19:33:31.485Z,43.40
2023-03-25T19:36:01.408Z,43.28
2023-03-25T19:38:29.998Z,41.05
2023-03-25T19:41:10.349Z,37.90
2023-03-25T19:43:37.395Z,48.33
2023-03-25T19:46:05.703Z,42.97
2023-03-25T19:48:33.411Z,37.22
2023-03-25T19:51:00.224Z,35.35
2023-03-25T19:53:28.303Z,32.47
2023-03-25T19:55:55.787Z,30.92
2023-03-25T19:58:23.416Z,28.83
2023-03-25T20:00:50.666Z,36.80
2023-03-25T20:03:22.548Z,34.10
2023-03-25T20:08:16.984Z,28.30
2023-03-25T20:10:43.823Z,27.63
2023-03-25T20:13:10.765Z,19.23
2023-03-25T20:15:37.511Z,20.83
2023-03-25T20:18:04.764Z,25.02
2023-03-25T20:20:31.589Z,16.50
2023-03-25T20:22:58.365Z,18.50
2023-03-25T20:25:25.080Z,15.35
2023-03-25T20:27:52.353Z,18.40
2023-03-25T20:30:20.559Z,17.10
2023-03-25T20:32:48.777Z,14.55
2023-03-25T20:35:18.105Z,18.77
2023-03-25T20:37:46.542Z,15.88
2023-03-25T20:40:16.627Z,16.77
2023-03-25T20:42:45.484Z,16.73
2023-03-25T20:45:14.215Z,18.20
2023-03-25T20:47:41.938Z,24.98
2023-03-25T20:50:11.095Z,20.23
2023-03-25T20:52:38.221Z,21.77
2023-03-25T20:55:05.847Z,23.90
2023-03-25T20:57:32.848Z,20.42
2023-03-25T20:59:59.641Z,25.70
2023-03-25T21:02:27.242Z,21.08
2023-03-25T21:04:57.030Z,18.23
2023-03-25T21:07:27.839Z,16.08
2023-03-25T21:09:54.988Z,14.45
2023-03-25T21:12:27.139Z,14.57
2023-03-25T21:14:59.951Z,17.33
2023-03-25T21:17:27.915Z,11.63
2023-03-25T21:19:55.020Z,11.50
2023-03-25T21:22:22.031Z,11.27
2023-03-25T21:24:48.905Z,7.70
2023-03-25T21:27:17.755Z,7.93
2023-03-25T21:29:46.191Z,7.03
2023-03-25T21:32:15.114Z,8.90
2023-03-25T21:34:42.561Z,6.65
2023-03-25T21:37:09.260Z,7.95
2023-03-25T21:39:37.479Z,7.80
2023-03-25T21:42:10.058Z,5.10
2023-03-25T21:44:38.184Z,12.40
2023-03-25T21:47:08.632Z,13.05
2023-03-25T21:49:35.604Z,11.95
2023-03-25T21:52:02.634Z,7.03
2023-03-25T21:54:30.566Z,6.57
2023-03-25T21:56:57.472Z,6.32
2023-03-25T21:59:25.403Z,5.80
2023-03-25T22:01:53.684Z,8.05
2023-03-25T22:04:20.660Z,6.68
2023-03-25T22:06:47.374Z,6.68
2023-03-25T22:09:14.047Z,6.55
2023-03-25T22:11:40.969Z,4.93
2023-03-25T22:14:09.495Z,4.50
2023-03-25T22:16:37.028Z,4.85
2023-03-25T22:19:04.474Z,6.35
2023-03-25T22:21:37.200Z,4.60
2023-03-25T22:24:05.672Z,3.13
2023-03-25T22:26:33.417Z,5.65
2023-03-25T22:29:02.963Z,4.63
2023-03-25T22:31:31.921Z,4.18
2023-03-25T22:34:03.405Z,5.35
2023-03-25T22:36:32.052Z,5.15
2023-03-25T22:38:59.700Z,6.38
2023-03-25T22:41:27.206Z,6.38
2023-03-25T22:43:53.966Z,6.80
2023-03-25T22:46:20.870Z,7.35
2023-03-25T22:48:47.846Z,3.97
2023-03-25T22:51:17.603Z,4.28
2023-03-25T22:53:45.447Z,3.05
2023-03-25T22:56:13.130Z,3.35
2023-03-25T22:58:40.531Z,1.23
2023-03-25T23:01:18.905Z,3.95
2023-03-25T23:03:45.728Z,1.67
2023-03-25T23:06:12.705Z,3.28
2023-03-25T23:08:40.282Z,2.60
2023-03-25T23:11:17.157Z,2.88
2023-03-25T23:13:47.756Z,7.47
2023-03-25T23:16:17.224Z,2.00
2023-03-25T23:18:44.937Z,1.70
2023-03-25T23:21:14.814Z,1.80
2023-03-25T23:23:52.841Z,1.95
2023-03-25T23:26:29.032Z,1.30
2023-03-25T23:29:00.623Z,0.77
2023-03-25T23:31:34.156Z,0.90
2023-03-25T23:34:04.784Z,2.25
2023-03-25T23:36:34.378Z,0.90
2023-03-25T23:39:02.436Z,0.55
2023-03-25T23:41:29.648Z,1.27
2023-03-25T23:43:56.657Z,0.25
2023-03-25T23:46:25.148Z,0.40
2023-03-25T23:48:55.033Z,0.88
2023-03-25T23:51:24.557Z,3.08
2023-03-25T23:53:52.555Z,0.45
2023-03-25T23:56:21.763Z,1.77
2023-03-25T23:58:49.144Z,0.77
